»·PEaware :: VOZ7 YBBN-KLAX

VOZ7 :: YBBN-KLAX

FLIGHT INFORMATION

Flight Status: Arrived
Operator:
Virgin Blue Airlines
More flights by this operator :: More flights under this callsign
Pilot: Matthew M. (2702)
Aircraft: BOEING 777-300
(B773)
More flights by this aircraft type
Origin: YBBN Brisbane Intl
Australia
Destination: KLAX Los Angeles Intl
United States
More flights between these airports :: More routes between these airports
Route: +CODDA3 COODA WINTYWEDEZ FICKY LEENA5
File this flight plan on PilotEdge
Remarks:
Altitude:
(Current/Filed)
35,000ft
Speed:
(Current/Filed)
475kts
Departed: 30-May-16 10:39 AM
Arrived: 30-May-16 11:42 AM
Distance/Time
Traveled:
6223nm/1:02
Distance/Time
To Go:
Arrived

Flight Plot

Page will automatically refresh every two minutes.


Map Options




Map Legend


Flown Route
Filed Route
Departure Airport
Arrival Airport
Navaid (VOR, NDB)
Fix

Horizontal Profiles

Position Reports

Time Latitude Longitude Heading Altitude Ground
Speed
30-May-16 10:36 30.749719 -123.573314 95 35093ft 502kts
30-May-16 10:37 30.733286 -123.411544 95 35093ft 503kts
30-May-16 10:38 30.716860 -123.249358 95 35093ft 504kts
30-May-16 10:39 30.700504 -123.087357 95 35077ft 506kts
30-May-16 10:40 30.684102 -122.924395 95 35078ft 508kts
30-May-16 10:41 30.667692 -122.760807 95 35079ft 510kts
30-May-16 10:42 30.651283 -122.596659 96 35080ft 512kts
30-May-16 10:43 30.634871 -122.431915 96 35090ft 514kts
30-May-16 10:44 30.656851 -122.272986 55 35091ft 507kts
30-May-16 10:45 30.747218 -122.150295 30 35085ft 495kts
30-May-16 10:46 30.874495 -122.102403 5 35084ft 482kts
30-May-16 10:47 31.007585 -122.086431 2 35085ft 479kts
30-May-16 10:48 31.140560 -122.073037 2 35086ft 478kts
30-May-16 10:49 31.271071 -122.046095 28 35085ft 487kts
30-May-16 10:50 31.345253 -121.915542 67 35091ft 494kts
30-May-16 10:51 31.397402 -121.766567 64 35095ft 493kts
30-May-16 10:52 31.448061 -121.646885 61 35093ft 493kts
30-May-16 10:53 31.520121 -121.479315 61 35093ft 493kts
30-May-16 10:54 31.579671 -121.334000 66 35094ft 495kts
30-May-16 10:55 31.621545 -121.208217 66 35094ft 495kts
30-May-16 10:56 31.672981 -121.057399 66 35095ft 496kts
30-May-16 10:57 31.725139 -120.906752 66 35095ft 497kts
30-May-16 10:58 31.776806 -120.756033 66 35095ft 498kts
30-May-16 10:59 31.828485 -120.604596 66 35100ft 498kts
30-May-16 11:00 31.880099 -120.452791 66 35102ft 498kts
30-May-16 11:01 31.931664 -120.301170 63 35103ft 497kts
30-May-16 11:02 32.014815 -120.173466 43 35102ft 491kts
30-May-16 11:03 32.109398 -120.056921 45 35046ft 488kts
30-May-16 11:04 32.201958 -119.939820 45 34195ft 478kts
30-May-16 11:05 32.291210 -119.827051 45 33480ft 465kts
30-May-16 11:06 32.367736 -119.729390 46 32691ft 459kts
30-May-16 11:07 32.428714 -119.651282 46 32051ft 453kts
30-May-16 11:08 32.513984 -119.541964 46 31146ft 447kts
30-May-16 11:09 32.597809 -119.433987 46 30140ft 441kts
30-May-16 11:10 32.680116 -119.327606 46 28836ft 432kts
30-May-16 11:11 32.760863 -119.223667 45 27532ft 423kts
30-May-16 11:12 32.839965 -119.121311 45 26225ft 415kts
30-May-16 11:13 32.918482 -119.019259 45 23816ft 420kts
30-May-16 11:14 32.993997 -118.921154 45 21313ft 381kts
30-May-16 11:15 33.065815 -118.827259 46 19140ft 382kts
30-May-16 11:16 33.138072 -118.732328 46 16748ft 387kts
30-May-16 11:17 33.210624 -118.637203 46 14399ft 382kts
30-May-16 11:18 33.278871 -118.547261 47 14089ft 354kts
30-May-16 11:19 33.343593 -118.461598 46 13995ft 324kts
30-May-16 11:20 33.366434 -118.368417 89 13998ft 298kts
30-May-16 11:21 33.355374 -118.269232 95 13336ft 299kts
30-May-16 11:22 33.342781 -118.171389 95 12042ft 295kts
30-May-16 11:23 33.329922 -118.075063 96 10786ft 291kts
30-May-16 11:24 33.361587 -118.001214 14 9593ft 272kts
30-May-16 11:25 33.437565 -118.004983 355 8466ft 269kts
30-May-16 11:26 33.511887 -118.015651 355 7887ft 267kts
30-May-16 11:27 33.585777 -118.026277 355 7317ft 265kts
30-May-16 11:28 33.658716 -118.036773 354 6967ft 263kts
30-May-16 11:29 33.731212 -118.047210 354 6968ft 261kts
30-May-16 11:30 33.803921 -118.059935 357 6961ft 265kts
30-May-16 11:31 33.874471 -118.047524 11 6807ft 244kts
30-May-16 11:32 33.941305 -118.032214 12 5274ft 242kts
30-May-16 11:33 33.994205 -118.045177 293 4953ft 209kts
30-May-16 11:34 33.984237 -118.118063 258 5170ft 236kts
30-May-16 11:35 33.973590 -118.192438 262 3962ft 188kts
30-May-16 11:36 33.967150 -118.255503 262 1838ft 189kts
30-May-16 11:37 33.961690 -118.308765 261 1294ft 146kts
30-May-16 11:38 33.956673 -118.357773 261 879ft 150kts
30-May-16 11:39 33.951764 -118.405659 262 144ft 130kts
30-May-16 11:40 33.949610 -118.419175 230 139ft 4kts
30-May-16 11:41 33.949288 -118.419644 230 139ft 0kts
30-May-16 11:42 33.948958 -118.420124 230 139ft 12kts
30-May-16 11:43 33.947063 -118.422208 108 139ft 3kts
30-May-16 11:44 33.947261 -118.419843 82 139ft 3kts
30-May-16 11:45 33.947551 -118.417046 82 139ft 16kts
30-May-16 11:46 33.947958 -118.413301 82 139ft 2kts
30-May-16 11:47 33.947991 -118.412993 82 139ft 7kts
30-May-16 11:48 33.947862 -118.409067 174 139ft 8kts
30-May-16 11:49 33.944942 -118.408994 206 139ft 3kts
30-May-16 11:50 33.944717 -118.409554 266 139ft 0kts
30-May-16 11:51 33.944717 -118.409556 266 139ft 0kts
30-May-16 11:52 33.944717 -118.409558 266 139ft 0kts
30-May-16 11:53 33.944717 -118.409558 266 139ft 0kts
30-May-16 11:54 33.944717 -118.409558 266 139ft 0kts

Navigation Log

Ident Type
Flight plan parsing failed, navigation log unavailable